Time;durP1;ratioP1;P1;durP2;ratioP2;P2;SDS_P1;SDS_P2;PMS_P1;PMS_P2;Temp;Humidity;BMP_temperature;BMP_pressure;BME280_temperature;BME280_humidity;BME280_pressure;Samples;Min_cycle;Max_cycle;Signal;HPM_P1;HPM_P2
2023/05/23 00:00:44;;;;;;;51.37;21.20;;;17.50;99.90;;;;;;5064308;27;21096;-63
2023/05/23 00:03:11;;;;;;;28.60;20.90;;;17.40;99.90;;;;;;5078434;27;20483;-63
2023/05/23 00:05:38;;;;;;;30.27;19.60;;;17.40;99.90;;;;;;5068129;28;20561;-62
2023/05/23 00:08:05;;;;;;;96.20;19.90;;;17.40;99.90;;;;;;5070242;27;20484;-63
2023/05/23 00:10:31;;;;;;;37.23;22.07;;;17.40;99.90;;;;;;5091240;27;20475;-63
2023/05/23 00:12:59;;;;;;;42.90;24.13;;;17.20;99.90;;;;;;5068295;28;20684;-63
2023/05/23 00:15:26;;;;;;;41.37;26.40;;;17.00;99.90;;;;;;5070850;28;20495;-63
2023/05/23 00:17:54;;;;;;;39.63;26.93;;;17.00;99.90;;;;;;5067471;28;21057;-63
2023/05/23 00:20:21;;;;;;;61.90;24.20;;;17.10;99.90;;;;;;5072470;27;20470;-63
2023/05/23 00:22:48;;;;;;;21.80;16.97;;;17.10;99.90;;;;;;5052729;28;20840;-63
2023/05/23 00:25:15;;;;;;;43.30;18.40;;;17.00;99.90;;;;;;5102214;27;20877;-63
2023/05/23 00:27:42;;;;;;;46.33;22.80;;;17.00;99.90;;;;;;5069697;28;21072;-63
2023/05/23 00:30:09;;;;;;;40.97;22.50;;;17.00;99.90;;;;;;5084346;27;20472;-63
2023/05/23 00:32:36;;;;;;;31.80;23.93;;;17.00;99.90;;;;;;5094592;27;20844;-63
2023/05/23 00:35:05;;;;;;;36.20;23.63;;;17.00;99.90;;;;;;5072669;28;20553;-63
2023/05/23 00:37:33;;;;;;;40.67;26.27;;;16.90;99.90;;;;;;5071423;27;20470;-63
2023/05/23 00:39:59;;;;;;;41.53;24.30;;;17.00;99.90;;;;;;5067831;28;20478;-63
2023/05/23 00:42:26;;;;;;;284.77;33.33;;;16.90;99.90;;;;;;5061685;27;20497;-63
2023/05/23 00:44:53;;;;;;;47.03;22.77;;;16.90;99.90;;;;;;5094689;27;20471;-63
2023/05/23 00:47:20;;;;;;;96.80;25.30;;;16.80;99.90;;;;;;5089603;27;20992;-63
2023/05/23 00:49:47;;;;;;;37.30;24.87;;;16.70;99.90;;;;;;5083668;28;20483;-63
2023/05/23 00:52:15;;;;;;;38.00;23.00;;;16.70;99.90;;;;;;5077993;28;20483;-63
2023/05/23 00:54:42;;;;;;;36.47;22.90;;;16.70;99.90;;;;;;5073945;28;20481;-63
2023/05/23 00:57:10;;;;;;;36.97;24.97;;;16.70;99.90;;;;;;5088413;28;20469;-62
2023/05/23 00:59:38;;;;;;;41.27;26.10;;;16.60;99.90;;;;;;5088631;28;20483;-62
2023/05/23 01:02:05;;;;;;;30.60;22.30;;;16.60;99.90;;;;;;5081157;27;20489;-63
2023/05/23 01:04:33;;;;;;;33.30;22.23;;;16.60;99.90;;;;;;5080502;27;20484;-62
2023/05/23 01:07:00;;;;;;;32.70;19.50;;;16.50;99.90;;;;;;5085115;27;20542;-62
2023/05/23 01:09:29;;;;;;;37.47;24.57;;;16.50;99.90;;;;;;5078291;27;21210;-63
2023/05/23 01:12:07;;;;;;;34.67;26.00;;;16.30;99.90;;;;;;5094817;27;20496;-63
2023/05/23 01:14:42;;;;;;;36.70;26.10;;;16.20;99.90;;;;;;5091495;27;20471;-63
2023/05/23 01:17:15;;;;;;;44.47;27.03;;;16.20;99.90;;;;;;5091695;27;21168;-62
2023/05/23 01:19:55;;;;;;;41.00;27.00;;;16.20;99.90;;;;;;5088957;27;20477;-62
2023/05/23 01:22:33;;;;;;;36.30;25.53;;;16.10;99.90;;;;;;5080949;28;20596;-62
2023/05/23 01:25:10;;;;;;;43.17;24.30;;;16.10;99.90;;;;;;5048044;28;20489;-62
2023/05/23 01:27:51;;;;;;;34.53;22.93;;;16.20;99.90;;;;;;5082143;27;20487;-62
2023/05/23 01:30:20;;;;;;;38.90;23.77;;;16.20;99.90;;;;;;5074207;27;20481;-62
2023/05/23 01:32:50;;;;;;;38.00;24.40;;;16.10;99.90;;;;;;5090444;27;20539;-63
2023/05/23 01:35:22;;;;;;;35.37;24.10;;;16.00;99.90;;;;;;5078521;28;20496;-62
2023/05/23 01:37:49;;;;;;;43.27;26.00;;;16.10;99.90;;;;;;5078883;28;20841;-62
2023/05/23 01:40:15;;;;;;;32.50;23.33;;;16.10;99.90;;;;;;5077546;27;21024;-62
2023/05/23 01:42:42;;;;;;;35.63;21.60;;;16.20;99.90;;;;;;5074011;28;20497;-63
2023/05/23 01:45:12;;;;;;;34.97;22.87;;;16.20;99.90;;;;;;5078628;28;20504;-63
2023/05/23 01:47:40;;;;;;;36.90;20.13;;;16.20;99.90;;;;;;5083131;28;20481;-63
2023/05/23 01:50:08;;;;;;;28.77;20.37;;;16.20;99.90;;;;;;5072836;28;20481;-63
2023/05/23 01:52:35;;;;;;;25.93;19.73;;;16.20;99.90;;;;;;5094505;28;20547;-62
2023/05/23 01:55:08;;;;;;;28.03;19.37;;;16.20;99.90;;;;;;5081432;28;21013;-62
2023/05/23 01:57:36;;;;;;;27.03;19.63;;;16.20;99.90;;;;;;5080828;28;20514;-62
2023/05/23 02:00:05;;;;;;;34.57;21.37;;;16.10;99.90;;;;;;5084045;28;20482;-62
2023/05/23 02:02:34;;;;;;;32.30;22.03;;;16.00;99.90;;;;;;5092514;27;20481;-62
2023/05/23 02:05:01;;;;;;;37.00;24.60;;;15.80;99.90;;;;;;5076824;28;20617;-63
2023/05/23 02:07:28;;;;;;;41.70;27.30;;;15.60;99.90;;;;;;5085826;27;20492;-63
2023/05/23 02:09:55;;;;;;;33.03;22.67;;;15.50;99.90;;;;;;5098391;27;20501;-62
2023/05/23 02:12:21;;;;;;;33.33;21.73;;;15.40;99.90;;;;;;5050503;27;20476;-62
2023/05/23 02:14:50;;;;;;;30.10;20.83;;;15.40;99.90;;;;;;5079219;28;20609;-63
2023/05/23 02:17:18;;;;;;;30.33;20.53;;;15.40;99.90;;;;;;5061738;28;20835;-63
2023/05/23 02:19:46;;;;;;;33.20;22.80;;;15.30;99.90;;;;;;5088576;28;20479;-62
2023/05/23 02:22:13;;;;;;;35.07;23.23;;;15.30;99.90;;;;;;5065822;28;20496;-62
2023/05/23 02:24:39;;;;;;;31.53;22.23;;;15.40;99.90;;;;;;5080575;28;20493;-62
2023/05/23 02:27:07;;;;;;;40.70;25.00;;;15.50;99.90;;;;;;5090268;28;20876;-63
2023/05/23 02:29:34;;;;;;;35.97;23.97;;;15.50;99.90;;;;;;5077928;28;21243;-62
2023/05/23 02:32:01;;;;;;;36.00;25.00;;;15.60;99.90;;;;;;5083555;28;20486;-63
2023/05/23 02:34:28;;;;;;;39.30;25.80;;;15.70;99.90;;;;;;5069865;28;20875;-62
2023/05/23 02:36:56;;;;;;;39.70;23.83;;;15.80;99.90;;;;;;5082114;28;20497;-62
2023/05/23 02:39:23;;;;;;;31.03;21.93;;;15.90;99.90;;;;;;5079227;28;20465;-63
2023/05/23 02:41:50;;;;;;;33.53;21.47;;;15.90;99.90;;;;;;5070654;28;20475;-63
2023/05/23 02:44:18;;;;;;;29.33;20.83;;;15.90;99.90;;;;;;5068839;28;20490;-62
2023/05/23 02:46:45;;;;;;;31.63;19.57;;;15.80;99.90;;;;;;5068166;28;20469;-62
2023/05/23 02:49:12;;;;;;;28.47;20.10;;;15.80;99.90;;;;;;5088293;27;20534;-62
2023/05/23 02:51:39;;;;;;;32.90;21.23;;;15.90;99.90;;;;;;5072162;28;20477;-62
2023/05/23 02:54:07;;;;;;;33.77;22.70;;;15.80;99.90;;;;;;5059132;28;20486;-62
2023/05/23 02:56:34;;;;;;;37.97;24.23;;;16.00;99.90;;;;;;5087944;27;20475;-61
2023/05/23 02:59:01;;;;;;;34.57;24.60;;;15.60;99.90;;;;;;5076565;28;20504;-62
2023/05/23 03:01:27;;;;;;;35.87;23.60;;;15.60;99.90;;;;;;5066903;27;20850;-62
2023/05/23 03:03:54;;;;;;;35.30;23.20;;;15.60;99.90;;;;;;5093920;27;20850;-63
2023/05/23 03:06:21;;;;;;;40.33;25.67;;;15.70;99.90;;;;;;5098205;27;20579;-63
2023/05/23 03:08:49;;;;;;;39.50;26.63;;;15.70;99.90;;;;;;5078628;27;20482;-62
2023/05/23 03:11:17;;;;;;;46.10;27.80;;;15.60;99.90;;;;;;5084075;28;20481;-61
2023/05/23 03:13:44;;;;;;;38.67;23.10;;;15.70;99.90;;;;;;5092924;27;20472;-62
2023/05/23 03:16:11;;;;;;;43.53;25.50;;;15.70;99.90;;;;;;5067094;27;21016;-62
2023/05/23 03:18:40;;;;;;;38.90;22.83;;;15.80;99.90;;;;;;5094758;27;20477;-62
2023/05/23 03:21:08;;;;;;;41.57;24.33;;;15.90;99.90;;;;;;5081027;28;20842;-62
2023/05/23 03:23:35;;;;;;;29.17;21.57;;;15.90;99.90;;;;;;5072833;28;20473;-62
2023/05/23 03:26:05;;;;;;;29.30;21.63;;;16.00;99.90;;;;;;5083740;27;20892;-61
2023/05/23 03:28:33;;;;;;;37.03;23.50;;;16.00;99.90;;;;;;5089175;27;20469;-61
2023/05/23 03:31:00;;;;;;;39.80;22.63;;;16.10;99.90;;;;;;5091316;28;20493;-62
2023/05/23 03:33:27;;;;;;;32.87;21.50;;;16.10;99.90;;;;;;5065690;27;20496;-62
2023/05/23 03:35:55;;;;;;;31.03;21.27;;;16.20;99.90;;;;;;5112802;27;20850;-61
2023/05/23 03:38:22;;;;;;;38.23;24.27;;;16.20;99.90;;;;;;5089505;27;21060;-62
2023/05/23 03:40:49;;;;;;;31.30;21.20;;;16.20;99.90;;;;;;5087491;28;20485;-62
2023/05/23 03:43:16;;;;;;;30.33;21.93;;;16.20;99.90;;;;;;5067029;28;20581;-62
2023/05/23 03:45:44;;;;;;;24.87;18.80;;;16.20;99.90;;;;;;5085595;27;21148;-62
2023/05/23 03:48:11;;;;;;;29.90;20.17;;;16.20;99.90;;;;;;5074032;27;20970;-62
2023/05/23 03:50:38;;;;;;;35.53;20.10;;;16.20;99.90;;;;;;5110928;27;20868;-62
2023/05/23 03:53:04;;;;;;;31.20;22.50;;;16.20;99.90;;;;;;5075257;27;20564;-62
2023/05/23 03:55:31;;;;;;;32.70;22.80;;;16.20;99.90;;;;;;5069875;28;20477;-62
2023/05/23 03:57:59;;;;;;;35.33;22.40;;;16.20;99.90;;;;;;5072766;27;20469;-62
2023/05/23 04:00:26;;;;;;;37.90;23.17;;;16.10;99.90;;;;;;5077381;27;20476;-62
2023/05/23 04:02:54;;;;;;;29.20;19.60;;;16.10;99.90;;;;;;5077676;28;20865;-62
2023/05/23 04:05:21;;;;;;;25.37;19.30;;;16.10;99.90;;;;;;5083947;28;20590;-62
2023/05/23 04:07:50;;;;;;;33.20;23.20;;;16.10;99.90;;;;;;5079239;28;20973;-62
2023/05/23 04:10:17;;;;;;;30.53;23.17;;;16.10;99.90;;;;;;5070641;28;21219;-62
2023/05/23 04:12:44;;;;;;;32.60;21.13;;;16.10;99.90;;;;;;5076697;28;20971;-62
2023/05/23 04:15:11;;;;;;;34.27;22.07;;;16.10;99.90;;;;;;5079742;28;20474;-62
2023/05/23 04:17:38;;;;;;;41.50;23.57;;;16.10;99.90;;;;;;5085407;28;20479;-62
2023/05/23 04:20:09;;;;;;;30.43;22.43;;;16.20;99.90;;;;;;5078981;28;20482;-62
2023/05/23 04:22:36;;;;;;;32.70;22.93;;;16.20;99.90;;;;;;5081361;28;20475;-62
2023/05/23 04:25:03;;;;;;;31.60;22.00;;;16.20;99.90;;;;;;5078856;28;20470;-62
2023/05/23 04:27:30;;;;;;;29.10;19.93;;;16.20;99.90;;;;;;5078547;28;20504;-62
2023/05/23 04:29:59;;;;;;;33.50;22.77;;;16.20;99.90;;;;;;5078816;28;20503;-62
2023/05/23 04:32:26;;;;;;;34.57;22.53;;;16.20;99.90;;;;;;5084947;27;20473;-63
2023/05/23 04:34:52;;;;;;;33.97;22.67;;;16.10;99.90;;;;;;5075328;28;21553;-62
2023/05/23 04:37:24;;;;;;;39.63;26.70;;;15.90;99.90;;;;;;5076851;28;20482;-62
2023/05/23 04:39:52;;;;;;;50.47;28.53;;;15.90;99.90;;;;;;5077030;28;20474;-62
2023/05/23 04:42:23;;;;;;;52.03;30.47;;;15.80;99.90;;;;;;5085644;27;20471;-62
2023/05/23 04:44:50;;;;;;;44.10;28.00;;;15.90;99.90;;;;;;5084115;27;20490;-61
2023/05/23 04:47:16;;;;;;;55.20;33.23;;;16.10;99.90;;;;;;5094013;27;20470;-62
2023/05/23 04:49:43;;;;;;;51.67;32.37;;;16.20;99.90;;;;;;5076924;28;20585;-62
2023/05/23 04:52:10;;;;;;;51.20;27.97;;;16.40;99.90;;;;;;5080284;28;20482;-62
2023/05/23 04:54:43;;;;;;;39.77;25.40;;;16.50;99.90;;;;;;5077951;27;20474;-62
2023/05/23 04:57:11;;;;;;;34.47;25.00;;;16.50;99.90;;;;;;5084130;27;20593;-62
2023/05/23 04:59:38;;;;;;;40.17;26.10;;;16.70;99.90;;;;;;5081465;28;20570;-62
2023/05/23 05:02:06;;;;;;;42.97;26.70;;;16.70;99.90;;;;;;5086878;28;20478;-62
2023/05/23 05:04:33;;;;;;;40.50;27.63;;;16.80;99.90;;;;;;5090260;27;20501;-62
2023/05/23 05:07:02;;;;;;;41.20;26.20;;;16.90;99.90;;;;;;5091725;28;20485;-62
2023/05/23 05:09:29;;;;;;;30.77;21.33;;;17.00;99.90;;;;;;5067061;28;20508;-62
2023/05/23 05:11:57;;;;;;;33.90;24.00;;;17.10;99.90;;;;;;5081545;28;20706;-62
2023/05/23 05:14:24;;;;;;;35.67;22.47;;;17.10;99.90;;;;;;5078601;28;20462;-62
2023/05/23 05:16:51;;;;;;;45.30;30.77;;;17.10;99.90;;;;;;5057412;28;20478;-62
2023/05/23 05:19:18;;;;;;;61.63;40.80;;;17.30;99.90;;;;;;5074710;28;20475;-62
2023/05/23 05:21:45;;;;;;;64.40;39.30;;;17.50;99.90;;;;;;5078621;28;20752;-61
2023/05/23 05:24:12;;;;;;;65.50;40.90;;;17.50;99.90;;;;;;5086646;28;20522;-62
2023/05/23 05:26:39;;;;;;;64.63;42.80;;;17.50;99.90;;;;;;5085426;28;20466;-62
2023/05/23 05:29:07;;;;;;;61.63;41.40;;;17.70;99.90;;;;;;5083929;27;20487;-62
2023/05/23 05:31:34;;;;;;;57.77;39.33;;;17.90;99.90;;;;;;5083621;28;20477;-61
2023/05/23 05:34:01;;;;;;;56.67;37.40;;;17.90;99.90;;;;;;5084845;28;20478;-61
2023/05/23 05:36:28;;;;;;;54.63;38.47;;;18.00;99.90;;;;;;5079612;28;20993;-62
2023/05/23 05:38:55;;;;;;;61.53;39.63;;;18.20;99.90;;;;;;5079006;27;20488;-62
2023/05/23 05:41:22;;;;;;;56.43;37.60;;;18.30;99.90;;;;;;5075576;28;20848;-62
2023/05/23 05:43:48;;;;;;;64.57;35.50;;;18.30;99.90;;;;;;5084927;27;20485;-62
2023/05/23 05:46:17;;;;;;;56.53;36.37;;;18.40;99.90;;;;;;5085054;28;20470;-61
2023/05/23 05:48:43;;;;;;;65.53;38.93;;;18.40;99.90;;;;;;5094584;28;20490;-62
2023/05/23 05:51:10;;;;;;;57.53;38.77;;;18.40;99.90;;;;;;5046593;27;20847;-62
2023/05/23 05:53:37;;;;;;;59.50;37.77;;;18.40;99.90;;;;;;5089800;28;20488;-62
2023/05/23 05:56:04;;;;;;;59.93;39.37;;;18.30;99.90;;;;;;5083476;28;21039;-62
2023/05/23 05:58:31;;;;;;;54.53;36.10;;;18.30;99.90;;;;;;5076220;28;20864;-62
2023/05/23 06:00:58;;;;;;;51.37;33.90;;;18.40;99.90;;;;;;5089594;28;20826;-62
2023/05/23 06:03:27;;;;;;;44.47;30.20;;;18.20;99.90;;;;;;5081617;28;20544;-62
2023/05/23 06:05:53;;;;;;;41.23;29.50;;;18.20;99.90;;;;;;5076592;28;20530;-61
2023/05/23 06:08:20;;;;;;;43.13;27.10;;;18.00;99.90;;;;;;5063729;28;20510;-60
2023/05/23 06:10:47;;;;;;;38.73;27.00;;;18.00;99.90;;;;;;5062403;28;20467;-62
2023/05/23 06:13:14;;;;;;;36.90;26.77;;;18.00;99.90;;;;;;5082409;28;20496;-61
2023/05/23 06:15:41;;;;;;;38.23;25.97;;;18.00;99.90;;;;;;5083704;28;20970;-61
2023/05/23 06:18:08;;;;;;;37.57;24.83;;;18.00;99.90;;;;;;5091013;28;20490;-62
2023/05/23 06:20:36;;;;;;;30.50;24.23;;;18.00;99.90;;;;;;5081565;28;20566;-61
2023/05/23 06:23:04;;;;;;;36.10;25.73;;;18.10;99.90;;;;;;5085107;28;20470;-61
2023/05/23 06:25:31;;;;;;;29.57;21.77;;;18.20;99.90;;;;;;5072821;28;20470;-61
2023/05/23 06:27:58;;;;;;;32.13;23.67;;;18.20;99.90;;;;;;5069193;28;20484;-61
2023/05/23 06:30:25;;;;;;;33.60;22.73;;;18.20;99.90;;;;;;5080810;27;20489;-61
2023/05/23 06:32:52;;;;;;;36.47;23.13;;;18.30;99.90;;;;;;5088003;28;20561;-61
2023/05/23 06:35:18;;;;;;;31.43;22.10;;;18.40;99.90;;;;;;5079314;28;20481;-61
2023/05/23 06:37:47;;;;;;;26.10;22.00;;;18.40;99.90;;;;;;5086277;27;20480;-61
2023/05/23 06:40:14;;;;;;;31.23;21.43;;;18.60;99.90;;;;;;5082437;28;20487;-61
2023/05/23 06:42:41;;;;;;;28.70;21.30;;;18.60;99.90;;;;;;5082034;27;20480;-61
2023/05/23 06:45:09;;;;;;;26.00;19.93;;;18.70;99.90;;;;;;5075418;27;20482;-62
2023/05/23 06:47:35;;;;;;;29.40;21.90;;;18.80;99.90;;;;;;5081015;27;20473;-62
2023/05/23 06:50:03;;;;;;;29.93;22.57;;;18.80;99.90;;;;;;5103485;27;20879;-62
2023/05/23 06:52:29;;;;;;;32.57;21.07;;;18.90;99.90;;;;;;5063177;28;20516;-62
2023/05/23 06:54:58;;;;;;;30.07;21.40;;;18.90;99.90;;;;;;5088545;27;20485;-62
2023/05/23 06:57:24;;;;;;;28.63;21.70;;;19.10;99.90;;;;;;5082993;27;20478;-62
2023/05/23 06:59:51;;;;;;;32.23;21.90;;;19.10;99.90;;;;;;5088464;27;20474;-62
2023/05/23 07:02:18;;;;;;;27.83;19.63;;;19.20;99.90;;;;;;5085033;28;20480;-61
2023/05/23 07:04:45;;;;;;;25.13;19.87;;;19.10;99.90;;;;;;5085423;28;20700;-61
2023/05/23 07:07:12;;;;;;;29.50;20.33;;;19.10;99.90;;;;;;5098177;27;20481;-61
2023/05/23 07:09:38;;;;;;;27.87;19.80;;;19.20;99.90;;;;;;5076359;27;20488;-61
2023/05/23 07:12:07;;;;;;;27.57;19.77;;;19.20;99.90;;;;;;5094706;27;20477;-62
2023/05/23 07:14:34;;;;;;;27.23;20.00;;;19.20;99.90;;;;;;5082640;27;20836;-61
2023/05/23 07:17:01;;;;;;;28.30;20.07;;;19.20;99.90;;;;;;5083746;28;20486;-61
2023/05/23 07:19:28;;;;;;;26.57;20.63;;;19.20;99.90;;;;;;5075794;28;20488;-61
2023/05/23 07:21:55;;;;;;;23.13;17.47;;;19.20;99.90;;;;;;5074162;28;20492;-62
2023/05/23 07:24:22;;;;;;;23.40;17.67;;;19.20;99.90;;;;;;5095376;27;21046;-61
2023/05/23 07:26:48;;;;;;;25.97;20.07;;;19.20;99.90;;;;;;5106401;27;20477;-61
2023/05/23 07:29:17;;;;;;;26.17;20.10;;;19.30;99.90;;;;;;5085483;27;20473;-61
2023/05/23 07:31:44;;;;;;;22.50;19.00;;;19.30;99.90;;;;;;5094237;28;20470;-61
2023/05/23 07:34:11;;;;;;;27.23;17.90;;;19.30;99.90;;;;;;5097658;27;20843;-62
2023/05/23 07:36:39;;;;;;;28.33;18.03;;;19.30;99.90;;;;;;5097455;28;20991;-62
2023/05/23 07:39:06;;;;;;;24.50;17.10;;;19.40;99.90;;;;;;5073368;28;20567;-62
2023/05/23 07:41:33;;;;;;;20.97;17.50;;;19.40;99.90;;;;;;5078040;27;20475;-61
2023/05/23 07:44:00;;;;;;;22.40;16.97;;;19.30;99.90;;;;;;5076932;28;20710;-61
2023/05/23 07:46:28;;;;;;;20.70;16.70;;;19.40;99.90;;;;;;5071632;27;20845;-62
2023/05/23 07:48:55;;;;;;;22.57;16.80;;;19.40;99.40;;;;;;5052937;28;20907;-61
2023/05/23 07:51:22;;;;;;;19.10;15.90;;;19.40;99.60;;;;;;5074593;28;20483;-62
2023/05/23 07:53:49;;;;;;;21.53;17.03;;;19.30;99.30;;;;;;5084212;28;20858;-61
2023/05/23 07:56:16;;;;;;;20.10;16.30;;;19.30;99.70;;;;;;5085869;27;20493;-62
2023/05/23 07:58:43;;;;;;;20.13;14.53;;;19.30;99.40;;;;;;5087246;27;20489;-61
2023/05/23 08:01:10;;;;;;;24.17;16.40;;;19.20;99.50;;;;;;5072588;28;21263;-62
2023/05/23 08:03:38;;;;;;;21.17;13.13;;;19.30;99.70;;;;;;5080064;28;20489;-62
2023/05/23 08:06:06;;;;;;;22.00;16.33;;;19.20;99.50;;;;;;5078663;27;20471;-61
2023/05/23 08:08:33;;;;;;;18.10;14.20;;;19.30;99.30;;;;;;5080934;28;20476;-61
2023/05/23 08:11:00;;;;;;;20.03;15.50;;;19.30;99.00;;;;;;5088852;27;20493;-61
2023/05/23 08:13:27;;;;;;;20.60;15.90;;;19.20;98.60;;;;;;5087854;27;20475;-61
2023/05/23 08:15:54;;;;;;;16.63;13.10;;;19.10;98.10;;;;;;5079527;28;20849;-61
2023/05/23 08:18:21;;;;;;;18.97;13.57;;;19.10;98.50;;;;;;5077617;28;20476;-61
2023/05/23 08:20:49;;;;;;;18.83;12.40;;;19.00;98.40;;;;;;5079902;28;20471;-61
2023/05/23 08:23:16;;;;;;;15.90;13.67;;;19.00;98.40;;;;;;5076567;27;20510;-61
2023/05/23 08:25:44;;;;;;;15.60;13.33;;;18.90;98.20;;;;;;5084260;27;20590;-61
2023/05/23 08:28:11;;;;;;;15.00;12.40;;;19.00;98.70;;;;;;5084532;27;20507;-61
2023/05/23 08:30:38;;;;;;;14.53;12.60;;;19.10;99.00;;;;;;5086847;27;20515;-61
2023/05/23 08:33:05;;;;;;;15.97;13.27;;;19.10;99.40;;;;;;5086673;27;21019;-62
2023/05/23 08:35:35;;;;;;;14.73;11.40;;;19.20;98.30;;;;;;5102898;27;20746;-61
2023/05/23 08:38:04;;;;;;;14.60;11.30;;;19.30;98.80;;;;;;5060328;27;20535;-61
2023/05/23 08:40:32;;;;;;;17.30;10.97;;;19.50;97.90;;;;;;5094325;27;20480;-61
2023/05/23 08:42:59;;;;;;;13.23;10.47;;;19.60;98.20;;;;;;5072264;27;20489;-61
2023/05/23 08:45:28;;;;;;;12.50;10.10;;;19.70;97.50;;;;;;5084126;28;20470;-61
2023/05/23 08:47:56;;;;;;;13.90;9.13;;;19.70;97.90;;;;;;5086611;28;21363;-61
2023/05/23 08:50:23;;;;;;;9.43;8.53;;;19.80;97.50;;;;;;5084951;28;20545;-61
2023/05/23 08:52:55;;;;;;;11.57;9.50;;;20.00;97.40;;;;;;5068082;27;20484;-61
2023/05/23 08:55:26;;;;;;;11.20;9.30;;;20.00;97.60;;;;;;5084599;27;20559;-62
2023/05/23 08:57:53;;;;;;;13.70;9.30;;;20.10;97.50;;;;;;5082292;27;20477;-62
2023/05/23 09:00:21;;;;;;;10.17;8.80;;;20.10;96.90;;;;;;5102968;27;20487;-61
2023/05/23 09:02:48;;;;;;;8.47;7.43;;;20.10;97.00;;;;;;5095063;27;20568;-61
2023/05/23 09:05:15;;;;;;;11.43;8.90;;;20.10;96.50;;;;;;5088730;28;20481;-61
2023/05/23 09:07:46;;;;;;;8.13;7.30;;;19.90;96.40;;;;;;5090215;27;20859;-61
2023/05/23 09:10:15;;;;;;;9.73;8.70;;;19.80;96.40;;;;;;5085555;27;20650;-61
2023/05/23 09:12:44;;;;;;;9.20;6.90;;;19.80;96.80;;;;;;5081894;28;20479;-62
2023/05/23 09:15:12;;;;;;;9.07;7.67;;;19.90;96.40;;;;;;5081988;28;20473;-61
2023/05/23 09:17:39;;;;;;;9.37;7.23;;;19.90;96.60;;;;;;5077510;28;20820;-62
2023/05/23 09:20:11;;;;;;;7.93;6.90;;;19.90;96.70;;;;;;5088629;28;20833;-62
2023/05/23 09:22:38;;;;;;;8.43;7.50;;;19.90;96.40;;;;;;5080932;28;20495;-61
2023/05/23 09:25:06;;;;;;;7.90;6.50;;;19.90;96.50;;;;;;5074253;28;21207;-61
2023/05/23 09:27:34;;;;;;;7.57;6.87;;;19.90;96.50;;;;;;5059418;28;20825;-61
2023/05/23 09:30:07;;;;;;;6.93;6.23;;;20.00;96.50;;;;;;5088071;27;20502;-61
2023/05/23 09:32:36;;;;;;;5.97;5.23;;;20.00;96.80;;;;;;5090726;27;20493;-62
2023/05/23 09:35:04;;;;;;;5.60;5.10;;;20.00;96.70;;;;;;5055705;28;20490;-62
2023/05/23 09:37:31;;;;;;;6.10;5.30;;;19.90;95.80;;;;;;5076657;28;21134;-61
2023/05/23 09:39:59;;;;;;;4.83;4.07;;;19.90;96.50;;;;;;5060816;28;20846;-62
2023/05/23 09:42:32;;;;;;;4.53;4.10;;;20.00;96.50;;;;;;5093678;27;20474;-62
2023/05/23 09:44:59;;;;;;;5.63;5.03;;;19.90;96.30;;;;;;5071888;28;21122;-61
2023/05/23 09:47:28;;;;;;;7.93;5.50;;;20.00;96.50;;;;;;5071237;28;20484;-62
2023/05/23 09:49:55;;;;;;;5.90;4.20;;;20.80;97.70;;;;;;5070262;28;20482;-62
2023/05/23 09:52:22;;;;;;;7.17;4.77;;;20.90;97.90;;;;;;5067991;28;20484;-62
2023/05/23 09:54:49;;;;;;;5.30;4.80;;;21.20;96.60;;;;;;5096963;28;21339;-62
2023/05/23 09:57:16;;;;;;;6.40;4.60;;;21.50;97.10;;;;;;5078524;28;20492;-62
2023/05/23 09:59:51;;;;;;;7.40;4.20;;;21.80;95.10;;;;;;5085112;27;20468;-62
2023/05/23 10:02:43;;;;;;;4.70;4.30;;;21.80;95.00;;;;;;5072711;28;20479;-62
2023/05/23 10:05:22;;;;;;;5.47;3.80;;;21.80;94.50;;;;;;5088278;28;20724;-62
2023/05/23 10:07:50;;;;;;;5.57;4.67;;;21.90;94.40;;;;;;5090493;28;20502;-63
2023/05/23 10:10:17;;;;;;;4.20;3.67;;;21.90;94.80;;;;;;5073136;28;20452;-62
2023/05/23 10:12:49;;;;;;;7.70;4.70;;;21.90;94.00;;;;;;5068905;27;20515;-62
2023/05/23 10:15:18;;;;;;;4.20;3.80;;;21.90;94.00;;;;;;5104301;27;20479;-62
2023/05/23 10:18:03;;;;;;;4.00;3.60;;;21.90;93.10;;;;;;5085232;27;20490;-63
2023/05/23 10:20:32;;;;;;;5.47;4.93;;;21.90;93.50;;;;;;5085695;27;20934;-62
2023/05/23 10:23:01;;;;;;;4.70;4.23;;;21.90;94.00;;;;;;5084473;28;21005;-62
2023/05/23 10:25:28;;;;;;;6.60;4.50;;;21.80;93.80;;;;;;5070733;28;20754;-62
2023/05/23 10:27:58;;;;;;;4.87;4.37;;;21.80;93.70;;;;;;5075872;27;20474;-63
2023/05/23 10:30:26;;;;;;;4.60;4.20;;;21.60;93.60;;;;;;5082627;27;20852;-62
2023/05/23 10:32:55;;;;;;;4.37;3.97;;;21.60;94.30;;;;;;5061425;28;20513;-62
2023/05/23 10:35:32;;;;;;;4.93;4.53;;;21.50;94.10;;;;;;5105354;27;20476;-63
2023/05/23 10:38:04;;;;;;;5.27;4.80;;;21.50;94.40;;;;;;5062182;28;20482;-62
2023/05/23 10:40:42;;;;;;;5.90;4.53;;;21.50;94.00;;;;;;5080985;28;20500;-62
2023/05/23 10:43:22;;;;;;;5.63;4.87;;;21.40;94.50;;;;;;5089556;27;20879;-62
2023/05/23 10:45:50;;;;;;;5.57;4.60;;;21.40;94.40;;;;;;5101866;27;20495;-62
2023/05/23 10:48:22;;;;;;;5.50;5.00;;;21.30;94.00;;;;;;5083379;28;20476;-62
2023/05/23 10:51:03;;;;;;;5.00;4.40;;;21.30;94.60;;;;;;5069830;28;20496;-62
2023/05/23 10:53:31;;;;;;;5.23;4.83;;;21.40;94.70;;;;;;5087121;27;20491;-62
2023/05/23 10:55:58;;;;;;;5.43;4.80;;;21.40;94.20;;;;;;5077098;27;20492;-62
2023/05/23 10:58:25;;;;;;;5.20;4.70;;;21.50;94.70;;;;;;5090396;27;20481;-62
2023/05/23 11:00:54;;;;;;;8.50;4.60;;;21.50;94.10;;;;;;5084422;28;20481;-62
2023/05/23 11:03:35;;;;;;;5.03;4.53;;;21.50;94.20;;;;;;5075057;28;20481;-62
2023/05/23 11:06:03;;;;;;;5.03;4.63;;;21.50;93.70;;;;;;5068509;28;20482;-62
2023/05/23 11:08:37;;;;;;;10.10;5.30;;;21.50;94.60;;;;;;5080104;28;20468;-62
2023/05/23 11:11:05;;;;;;;6.17;5.67;;;21.60;94.60;;;;;;5072926;28;20885;-62
2023/05/23 11:14:01;;;;;;;4.70;4.30;;;21.50;94.30;;;;;;5070513;28;20470;-61
2023/05/23 11:16:30;;;;;;;5.33;4.83;;;21.40;93.70;;;;;;5086903;27;20469;-62
2023/05/23 11:19:24;;;;;;;6.70;5.73;;;21.30;94.30;;;;;;5086546;27;20504;-62
2023/05/23 11:21:55;;;;;;;7.90;5.50;;;21.20;94.70;;;;;;5071851;28;20485;-62
2023/05/23 11:24:22;;;;;;;9.40;5.30;;;21.20;94.50;;;;;;5081614;28;20493;-62
2023/05/23 11:26:53;;;;;;;5.60;5.10;;;21.10;94.70;;;;;;5074075;27;20527;-62
2023/05/23 11:29:20;;;;;;;5.20;4.67;;;21.10;94.50;;;;;;5085150;27;20507;-63
2023/05/23 11:31:47;;;;;;;5.67;4.90;;;21.10;95.70;;;;;;5100974;27;20474;-62
2023/05/23 11:34:14;;;;;;;6.17;5.50;;;21.10;94.60;;;;;;5062259;28;20489;-62
2023/05/23 11:36:42;;;;;;;5.23;4.73;;;21.20;94.50;;;;;;5068955;28;20484;-62
2023/05/23 11:39:10;;;;;;;6.20;5.70;;;21.20;94.60;;;;;;5089825;27;20485;-61
2023/05/23 11:41:37;;;;;;;7.93;6.53;;;21.20;94.50;;;;;;5077908;27;20484;-62
2023/05/23 11:44:11;;;;;;;7.57;6.70;;;21.20;94.30;;;;;;5101690;27;20460;-62
2023/05/23 11:46:39;;;;;;;11.23;6.27;;;21.20;93.60;;;;;;5099904;27;21093;-62
2023/05/23 11:49:11;;;;;;;6.10;5.50;;;21.20;94.00;;;;;;5100558;27;20458;-61
2023/05/23 11:51:38;;;;;;;6.43;5.93;;;21.30;94.00;;;;;;5085094;27;20969;-62
2023/05/23 11:54:07;;;;;;;7.57;6.80;;;21.20;94.10;;;;;;5104641;27;20477;-62
2023/05/23 11:56:40;;;;;;;6.90;6.20;;;21.20;94.10;;;;;;5073607;28;21380;-62
2023/05/23 11:59:07;;;;;;;7.43;6.50;;;21.30;94.20;;;;;;5078909;27;20474;-63
2023/05/23 12:01:37;;;;;;;9.23;7.00;;;21.60;93.70;;;;;;5069724;28;20494;-62
2023/05/23 12:04:10;;;;;;;7.80;6.40;;;21.60;94.20;;;;;;5065996;27;20494;-62
2023/05/23 12:06:40;;;;;;;6.00;5.50;;;21.70;94.10;;;;;;5078363;28;20483;-61
2023/05/23 12:09:11;;;;;;;8.77;6.20;;;21.70;93.90;;;;;;5069346;27;20477;-62
2023/05/23 12:11:39;;;;;;;6.83;6.10;;;21.90;95.20;;;;;;5115183;27;20472;-62
2023/05/23 12:14:06;;;;;;;8.63;6.60;;;22.00;94.30;;;;;;5076920;27;20482;-61
2023/05/23 12:16:33;;;;;;;7.40;6.80;;;22.20;94.30;;;;;;5076332;28;21075;-63
2023/05/23 12:19:01;;;;;;;6.80;6.20;;;22.40;94.00;;;;;;5065387;28;20478;-62
2023/05/23 12:21:42;;;;;;;7.17;6.47;;;22.60;94.10;;;;;;5063905;28;20485;-62
2023/05/23 12:24:16;;;;;;;8.83;7.60;;;22.70;93.30;;;;;;5080282;28;20491;-62
2023/05/23 12:26:53;;;;;;;6.73;6.03;;;22.70;93.40;;;;;;5079910;28;20493;-61
2023/05/23 12:29:21;;;;;;;8.13;5.90;;;22.70;92.00;;;;;;5076751;28;20894;-61
2023/05/23 12:31:51;;;;;;;8.07;6.90;;;22.70;92.40;;;;;;5082357;27;20486;-62
2023/05/23 12:34:19;;;;;;;7.10;6.40;;;22.60;92.30;;;;;;5069861;28;20489;-62
2023/05/23 12:36:47;;;;;;;8.40;6.77;;;22.60;92.40;;;;;;5063582;28;21148;-61
2023/05/23 12:39:16;;;;;;;7.60;6.50;;;22.50;92.10;;;;;;5066424;27;20467;-62